Portada
METAR-TAF:

METAR-TAF

Aeropuertos :

Aeropuerto de Andorra-La Seu

Seo de Urgel, España

latitud: 42-20-29N, longitud: 001-24-17E, altitud: 802 m

Observación

El informe se hizo hace 11 horas y 49 minutos, a las 16:00 UTC
Viento 10 kt del norte-noroeste, variando entre oeste-noroeste y norte
Temperatura 18°C
Humedad 15%
Presión 1026 hPa
Visibilidad 10 km o más
sin nubes por debajo de 1500 m y sin presencia de cumulonimbus.

METAR: LESU 201600Z 33010KT 300V010 CAVOK 18/M09 Q1026

Hora: 04:49 (03:49 UTC)

Pronóstico

El informe se hizo hace 1 hora y 49 minutos, a las 02:00 UTC
Pronóstico válido del 21 a las 03 UTC al 22 a las 03 UTC
Viento 2 kt con dirección variable
Visibilidad 10 km o más
sin nubes por debajo de 1500 m y sin presencia de cumulonimbus.
Probabilidad 40% :
Temporalmente
del 21 a las 13 UTC al 21 a las 18 UTC
Viento 10 kt del sur-suroeste

TAF: LESU 210200Z 2103/2203 VRB02KT CAVOK TX17/2114Z TN00/2106Z PROB40 TEMPO 2113/2118 21010KT

Observaciones y pronósticos meteorológicos de más de 4000 aeropuertos (mensajes METAR y TAF).

Los puntos amarillos y rojos representan las estaciones disponibles.

Ponga el ratón en el punto deseado para ver el nombre de la estación.

Haga clic para ver las observaciones y los pronósticos meteorológicos.

Para cambiar el mapa : haga clic en los botones verdes con una cruz de color negro para hacer un zoom, en el botón verde con un guión para alejar o en las flechas verdes para mapas adyacentes.


METAR-TAF: